Time;durP1;ratioP1;P1;durP2;ratioP2;P2;SDS_P1;SDS_P2;PMS_P1;PMS_P2;Temp;Humidity;BMP_temperature;BMP_pressure;BME280_temperature;BME280_humidity;BME280_pressure;Samples;Min_cycle;Max_cycle;Signal;HPM_P1;HPM_P2
2024/01/17 00:00:49;;;;;;;0.10;0.10;;;;;;;-2.03;77.65;100028.13;15699525;28;20147;-49
2024/01/17 00:08:22;;;;;;;0.10;0.10;;;;;;;-2.17;77.63;100032.91;15745704;28;20094;-52
2024/01/17 00:15:57;;;;;;;0.00;0.00;;;;;;;-2.10;77.09;100023.47;15726362;28;20047;-52
2024/01/17 00:23:31;;;;;;;0.05;0.05;;;;;;;-2.89;78.73;100033.53;15734717;28;20052;-53
2024/01/17 00:31:06;;;;;;;0.20;0.20;;;;;;;-2.63;77.21;100010.94;15736503;28;20376;-52
2024/01/17 00:38:48;;;;;;;0.00;0.00;;;;;;;-2.50;77.88;100009.81;15720301;28;20056;-48
2024/01/17 00:46:23;;;;;;;0.00;0.00;;;;;;;-2.46;76.13;99998.03;15732786;28;20041;-50
2024/01/17 00:53:57;;;;;;;3.58;3.25;;;;;;;-2.42;76.27;99996.78;15699126;28;20041;-51
2024/01/17 01:01:32;;;;;;;0.47;0.28;;;;;;;-2.80;76.82;100005.59;15697039;28;20048;-51
2024/01/17 01:09:05;;;;;;;0.00;0.00;;;;;;;-2.98;77.54;100000.28;15717586;28;20102;-54
2024/01/17 01:16:42;;;;;;;0.08;0.08;;;;;;;-3.28;78.58;100003.91;15716737;28;20542;-51
2024/01/17 01:24:15;;;;;;;0.00;0.00;;;;;;;-3.12;78.13;99978.75;15734023;28;20127;-52
2024/01/17 01:31:50;;;;;;;0.00;0.00;;;;;;;-3.31;78.66;99978.78;15734148;28;20119;-49
2024/01/17 01:39:30;;;;;;;0.10;0.10;;;;;;;-3.39;78.38;99976.84;15731842;28;20362;-51
2024/01/17 01:47:07;;;;;;;0.00;0.00;;;;;;;-3.64;79.27;99970.38;15731084;28;20037;-51
2024/01/17 01:54:40;;;;;;;0.00;0.00;;;;;;;-3.57;78.97;99968.00;15732403;28;20053;-52
2024/01/17 02:02:15;;;;;;;0.00;0.00;;;;;;;-3.83;79.98;99965.09;15732008;28;20102;-51
2024/01/17 02:09:49;;;;;;;0.10;0.10;;;;;;;-3.94;79.60;99954.75;15742851;28;20037;-49
2024/01/17 02:17:30;;;;;;;0.00;0.00;;;;;;;-3.86;80.14;99947.84;15708362;28;20044;-51
2024/01/17 02:25:06;;;;;;;0.10;0.10;;;;;;;-3.62;79.42;99923.00;15723344;28;20049;-50
2024/01/17 02:32:41;;;;;;;0.00;0.00;;;;;;;-4.05;79.43;99916.41;15745541;28;20130;-48
2024/01/17 02:40:15;;;;;;;0.38;0.38;;;;;;;-3.80;79.27;99915.00;15749478;28;20044;-51
2024/01/17 02:47:49;;;;;;;0.00;0.00;;;;;;;-3.71;78.92;99898.44;15736760;28;20041;-53
2024/01/17 02:55:25;;;;;;;0.00;0.00;;;;;;;-3.33;76.91;99881.00;15746539;28;20040;-53
2024/01/17 03:02:59;;;;;;;1.63;1.52;;;;;;;-3.43;76.48;99880.19;15746542;28;20070;-52
2024/01/17 03:10:34;;;;;;;0.10;0.10;;;;;;;-3.86;77.49;99866.59;15752767;28;20109;-54
2024/01/17 03:18:13;;;;;;;0.00;0.00;;;;;;;-3.94;78.79;99834.16;15748087;28;20032;-49
2024/01/17 03:25:48;;;;;;;0.10;0.10;;;;;;;-3.29;76.07;99848.25;15737894;28;20032;-49
2024/01/17 03:33:21;;;;;;;0.00;0.00;;;;;;;-3.55;75.62;99841.97;15738202;28;20040;-51
2024/01/17 03:41:01;;;;;;;0.08;0.08;;;;;;;-3.61;76.85;99814.50;15745431;28;20032;-51
2024/01/17 03:48:36;;;;;;;0.25;0.25;;;;;;;-3.54;75.55;99809.50;15710834;28;20049;-49
2024/01/17 03:56:11;;;;;;;0.00;0.00;;;;;;;-3.94;77.26;99810.56;15735608;28;20044;-49
2024/01/17 04:03:47;;;;;;;0.10;0.10;;;;;;;-3.41;75.81;99789.88;15735398;28;20051;-54
2024/01/17 04:11:24;;;;;;;0.08;0.08;;;;;;;-3.63;74.97;99775.31;15717143;28;20037;-53
2024/01/17 04:18:58;;;;;;;0.00;0.00;;;;;;;-4.49;79.12;99769.22;15741239;28;20120;-54
2024/01/17 04:26:34;;;;;;;0.00;0.00;;;;;;;-4.80;81.18;99755.44;15751350;22;20506;-50
2024/01/17 04:34:15;;;;;;;0.15;0.15;;;;;;;-4.90;81.34;99751.97;15778304;28;20051;-47
2024/01/17 04:41:50;;;;;;;0.00;0.00;;;;;;;-4.91;81.17;99737.22;15787720;28;20040;-50
2024/01/17 04:49:30;;;;;;;0.03;0.03;;;;;;;-4.81;80.27;99737.25;15792862;28;20106;-48
2024/01/17 04:57:05;;;;;;;0.40;0.40;;;;;;;-4.82;80.34;99718.09;15779564;28;20051;-47
2024/01/17 05:04:38;;;;;;;0.10;0.10;;;;;;;-5.04;80.38;99708.69;15782974;28;20086;-49
2024/01/17 05:12:13;;;;;;;0.10;0.10;;;;;;;-4.88;81.02;99697.72;15767748;28;20106;-47
2024/01/17 05:19:46;;;;;;;0.17;0.17;;;;;;;-4.96;80.25;99684.47;15789826;28;20120;-48
2024/01/17 05:27:22;;;;;;;0.10;0.10;;;;;;;-5.04;80.84;99674.69;15778033;28;20105;-47
2024/01/17 05:34:55;;;;;;;2.60;2.05;;;;;;;-5.01;80.30;99673.59;15776746;28;20068;-49
2024/01/17 05:42:30;;;;;;;0.82;0.68;;;;;;;-5.03;80.54;99652.81;15767854;28;20586;-49
2024/01/17 05:50:04;;;;;;;0.00;0.00;;;;;;;-5.18;80.63;99656.78;15767271;28;20036;-45
2024/01/17 05:57:39;;;;;;;0.00;0.00;;;;;;;-4.87;79.75;99647.03;15791138;28;20424;-47
2024/01/17 06:05:13;;;;;;;0.10;0.10;;;;;;;-5.19;80.96;99623.75;15787511;28;20040;-48
2024/01/17 06:12:48;;;;;;;0.00;0.00;;;;;;;-5.29;81.20;99612.44;15769768;28;20320;-49
2024/01/17 06:20:22;;;;;;;0.10;0.10;;;;;;;-4.96;79.58;99604.19;15779958;28;20044;-49
2024/01/17 06:27:57;;;;;;;0.00;0.00;;;;;;;-5.08;79.69;99592.22;15784826;28;20459;-47
2024/01/17 06:35:31;;;;;;;0.00;0.00;;;;;;;-4.95;79.29;99574.44;15793237;28;20097;-50
2024/01/17 06:43:06;;;;;;;0.00;0.00;;;;;;;-5.24;79.73;99561.38;15797033;28;20071;-49
2024/01/17 06:50:41;;;;;;;0.00;0.00;;;;;;;-4.95;78.99;99550.88;15797804;28;20095;-47
2024/01/17 06:58:16;;;;;;;0.20;0.20;;;;;;;-4.68;77.91;99537.06;15782832;28;20057;-48
2024/01/17 07:05:50;;;;;;;0.00;0.00;;;;;;;-4.85;77.80;99535.16;15790445;28;20048;-46
2024/01/17 07:13:28;;;;;;;0.00;0.00;;;;;;;-4.78;78.13;99533.66;15788737;28;20601;-46
2024/01/17 07:21:05;;;;;;;0.08;0.08;;;;;;;-4.46;76.90;99514.94;15790418;28;20397;-50
2024/01/17 07:28:40;;;;;;;0.00;0.00;;;;;;;-4.77;77.14;99479.50;15780888;28;20562;-47
2024/01/17 07:36:15;;;;;;;0.00;0.00;;;;;;;-5.06;78.40;99459.47;15801687;28;20169;-46
2024/01/17 07:43:50;;;;;;;0.03;0.03;;;;;;;-4.51;76.32;99441.22;15801044;28;20373;-51
2024/01/17 07:51:23;;;;;;;0.00;0.00;;;;;;;-4.57;76.25;99423.50;15783683;28;20078;-45
2024/01/17 07:59:00;;;;;;;0.00;0.00;;;;;;;-4.38;75.67;99409.47;15766719;28;20032;-46
2024/01/17 08:06:34;;;;;;;0.10;0.10;;;;;;;-4.14;74.60;99388.75;15797877;28;20052;-50
2024/01/17 08:14:10;;;;;;;0.10;0.10;;;;;;;-4.02;73.91;99373.63;15764456;28;20446;-46
2024/01/17 08:21:46;;;;;;;0.00;0.00;;;;;;;-3.89;73.99;99375.84;15782475;28;20056;-46
2024/01/17 08:29:22;;;;;;;0.00;0.00;;;;;;;-3.86;73.36;99375.56;15781418;28;20032;-46
2024/01/17 08:36:58;;;;;;;0.17;0.17;;;;;;;-3.83;73.32;99364.75;15782176;28;20127;-45
2024/01/17 08:44:42;;;;;;;;;;;;;;;-3.61;72.84;99343.28;15778991;28;20076;-47
2024/01/17 08:52:16;;;;;;;0.10;0.10;;;;;;;-3.63;71.45;99320.84;15798626;28;19947;-47
2024/01/17 08:59:51;;;;;;;0.10;0.10;;;;;;;-3.61;71.57;99324.94;15798894;28;20461;-47
2024/01/17 09:07:25;;;;;;;0.10;0.10;;;;;;;-3.33;70.90;99315.09;15795415;28;20246;-47
2024/01/17 09:15:01;;;;;;;0.32;0.25;;;;;;;-2.92;68.51;99299.53;15798134;28;20067;-49
2024/01/17 09:22:35;;;;;;;0.10;0.10;;;;;;;-2.27;67.25;99296.22;15791325;28;20041;-47
2024/01/17 09:30:11;;;;;;;0.10;0.10;;;;;;;-2.04;65.62;99296.41;15797206;28;20040;-46
2024/01/17 09:37:47;;;;;;;0.00;0.00;;;;;;;-1.80;64.94;99285.84;15797855;28;20040;-45
2024/01/17 09:45:24;;;;;;;0.15;0.15;;;;;;;-1.94;65.78;99283.06;15795131;28;20249;-50
2024/01/17 09:52:58;;;;;;;0.00;0.00;;;;;;;-1.68;65.67;99259.19;15797445;28;20036;-47
2024/01/17 10:00:35;;;;;;;0.22;0.22;;;;;;;-1.63;65.36;99236.69;15797162;28;20119;-47
2024/01/17 10:08:09;;;;;;;0.10;0.10;;;;;;;-1.76;65.17;99228.47;15767648;28;20192;-45
2024/01/17 10:15:47;;;;;;;0.00;0.00;;;;;;;-1.56;65.24;99195.53;15782528;28;20039;-46
2024/01/17 10:23:24;;;;;;;0.00;0.00;;;;;;;-0.86;63.59;99172.78;15807184;28;20055;-48
2024/01/17 10:31:02;;;;;;;0.25;0.25;;;;;;;-0.81;62.52;99158.09;15802733;28;20036;-45
2024/01/17 10:38:37;;;;;;;1.95;0.57;;;;;;;0.15;60.28;99126.72;15808281;28;20131;-47
2024/01/17 10:46:12;;;;;;;0.30;0.17;;;;;;;0.79;58.29;99113.66;15804610;28;20122;-48
2024/01/17 10:53:48;;;;;;;0.65;0.38;;;;;;;0.86;58.72;99106.63;15807761;28;20674;-49
2024/01/17 11:01:36;;;;;;;0.00;0.00;;;;;;;1.18;57.52;99083.38;15773178;28;20090;-46
2024/01/17 11:09:14;;;;;;;0.00;0.00;;;;;;;0.60;58.68;99079.94;15803125;28;20036;-50
2024/01/17 11:16:51;;;;;;;0.00;0.00;;;;;;;1.00;57.24;99054.75;15805467;28;20728;-46
2024/01/17 11:24:35;;;;;;;0.00;0.00;;;;;;;0.46;60.35;99040.19;15804731;28;20048;-49
2024/01/17 11:32:19;;;;;;;0.13;0.13;;;;;;;1.17;58.06;99011.22;15804717;28;20042;-50
2024/01/17 11:39:55;;;;;;;0.67;0.50;;;;;;;2.23;56.03;98989.75;15804766;28;20067;-45
2024/01/17 11:47:30;;;;;;;0.10;0.10;;;;;;;1.60;56.73;98983.81;15800781;28;20051;-46
2024/01/17 11:55:06;;;;;;;0.10;0.10;;;;;;;0.86;59.09;98969.31;15785523;28;20039;-48
2024/01/17 12:02:46;;;;;;;0.20;0.20;;;;;;;1.02;58.44;98957.63;15783715;28;20044;-47
2024/01/17 12:10:20;;;;;;;0.00;0.00;;;;;;;0.67;60.42;98935.63;15780452;28;20036;-50
2024/01/17 12:18:01;;;;;;;0.00;0.00;;;;;;;0.38;61.43;98918.13;15802348;28;20087;-48
2024/01/17 12:25:39;;;;;;;1.38;1.27;;;;;;;0.37;61.18;98893.53;15794528;28;20064;-50
2024/01/17 12:33:15;;;;;;;0.10;0.10;;;;;;;0.35;61.46;98873.63;15800307;28;20032;-52
2024/01/17 12:40:49;;;;;;;1.13;0.55;;;;;;;0.59;61.91;98865.28;15781599;28;20396;-49
2024/01/17 12:48:27;;;;;;;0.40;0.25;;;;;;;0.64;61.18;98859.44;15797099;28;20054;-46
2024/01/17 12:56:07;;;;;;;0.88;0.52;;;;;;;0.81;60.73;98850.22;15767293;28;20438;-46
2024/01/17 13:03:44;;;;;;;1.10;1.10;;;;;;;0.26;62.26;98828.09;15783726;28;20062;-47
2024/01/17 13:11:24;;;;;;;;;;;;;;;0.44;62.37;98822.34;15778881;28;20066;-49
2024/01/17 13:19:01;;;;;;;1.63;1.17;;;;;;;0.17;62.75;98814.22;15787606;28;19924;-48
2024/01/17 13:26:35;;;;;;;0.20;0.20;;;;;;;-0.02;64.08;98804.31;15789600;28;20114;-46
2024/01/17 13:34:11;;;;;;;0.00;0.00;;;;;;;0.60;62.77;98786.91;15796715;28;20147;-49
2024/01/17 13:41:45;;;;;;;0.00;0.00;;;;;;;1.10;61.99;98772.53;15790835;28;20515;-49
2024/01/17 13:49:24;;;;;;;;;;;;;;;0.39;63.56;98767.50;15794881;28;20032;-46
2024/01/17 13:56:58;;;;;;;0.00;0.00;;;;;;;0.65;62.50;98748.38;15801757;28;20395;-47
2024/01/17 14:04:32;;;;;;;0.00;0.00;;;;;;;0.66;62.84;98746.56;15805220;28;20044;-47
2024/01/17 14:12:07;;;;;;;0.00;0.00;;;;;;;0.24;64.35;98737.78;15797359;28;20051;-49
2024/01/17 14:19:42;;;;;;;0.10;0.10;;;;;;;0.64;63.49;98725.59;15790997;28;20068;-49
2024/01/17 14:27:16;;;;;;;0.00;0.00;;;;;;;0.39;63.90;98708.63;15807756;28;20047;-49
2024/01/17 14:35:10;;;;;;;0.00;0.00;;;;;;;0.44;63.43;98706.22;15791306;28;20040;-50
2024/01/17 14:42:47;;;;;;;0.28;0.28;;;;;;;-0.27;66.10;98688.72;15745602;28;20043;-46
2024/01/17 14:50:22;;;;;;;0.00;0.00;;;;;;;-0.08;65.73;98652.97;15803995;28;20507;-46
2024/01/17 14:57:56;;;;;;;0.13;0.13;;;;;;;-0.35;66.06;98645.88;15788999;28;20081;-49
2024/01/17 15:05:32;;;;;;;0.10;0.10;;;;;;;-0.37;67.29;98632.09;15804655;28;20039;-45
2024/01/17 15:13:06;;;;;;;0.57;0.57;;;;;;;-0.33;67.45;98623.59;15784480;28;20044;-48
2024/01/17 15:20:40;;;;;;;0.10;0.10;;;;;;;-0.26;66.82;98613.09;15805075;28;20508;-46
2024/01/17 15:28:14;;;;;;;3.10;1.45;;;;;;;-0.41;67.78;98586.84;15804169;28;20064;-47
2024/01/17 15:35:50;;;;;;;0.00;0.00;;;;;;;-0.20;67.42;98567.50;15796947;28;20070;-47
2024/01/17 15:43:24;;;;;;;0.10;0.10;;;;;;;-0.15;68.47;98557.16;15798211;28;20047;-46
2024/01/17 15:50:59;;;;;;;0.00;0.00;;;;;;;-0.39;68.59;98552.38;15786051;28;20032;-45
2024/01/17 15:58:33;;;;;;;0.10;0.10;;;;;;;0.02;68.29;98554.22;15785272;28;20500;-48
2024/01/17 16:06:08;;;;;;;0.05;0.05;;;;;;;0.18;67.64;98541.50;15779286;28;20494;-48
2024/01/17 16:13:42;;;;;;;0.00;0.00;;;;;;;0.51;67.50;98538.13;15796023;28;20063;-49
2024/01/17 16:21:19;;;;;;;0.20;0.20;;;;;;;0.35;67.01;98534.03;15798944;28;20129;-46
2024/01/17 16:28:52;;;;;;;0.40;0.38;;;;;;;0.44;67.13;98524.13;15798756;28;20044;-52
2024/01/17 16:36:28;;;;;;;0.05;0.05;;;;;;;0.04;68.12;98528.44;15803123;28;20044;-51
2024/01/17 16:44:03;;;;;;;1.00;1.00;;;;;;;0.05;68.08;98523.00;15795433;28;20044;-51
2024/01/17 16:51:39;;;;;;;0.08;0.08;;;;;;;-0.21;68.51;98512.34;15796868;28;20048;-49
2024/01/17 16:59:15;;;;;;;0.10;0.10;;;;;;;0.31;67.07;98501.16;15802371;28;20044;-53
2024/01/17 17:06:51;;;;;;;0.10;0.10;;;;;;;0.09;67.91;98494.38;15794250;28;20077;-50
2024/01/17 17:14:26;;;;;;;0.00;0.00;;;;;;;-0.55;70.39;98466.56;15793950;28;20043;-51
2024/01/17 17:22:01;;;;;;;1.27;0.52;;;;;;;-0.42;70.63;98494.78;15797154;28;20040;-51
2024/01/17 17:29:35;;;;;;;0.00;0.00;;;;;;;-0.28;71.14;98481.50;15797708;28;20070;-50
2024/01/17 17:37:11;;;;;;;0.10;0.10;;;;;;;0.01;69.83;98482.22;15778612;28;20109;-51
2024/01/17 17:44:45;;;;;;;0.10;0.10;;;;;;;-0.57;74.33;98465.91;15787755;28;20098;-54
2024/01/17 17:52:21;;;;;;;0.00;0.00;;;;;;;-0.65;75.57;98456.38;15773646;28;20516;-51
2024/01/17 17:59:55;;;;;;;0.10;0.10;;;;;;;-0.79;77.17;98441.50;15768664;28;20063;-49
2024/01/17 18:07:30;;;;;;;0.30;0.30;;;;;;;-0.22;76.24;98435.06;15793703;28;20076;-50
2024/01/17 18:15:07;;;;;;;0.10;0.10;;;;;;;-0.33;77.81;98425.06;15792967;28;20032;-53
2024/01/17 18:22:42;;;;;;;0.20;0.20;;;;;;;-0.60;78.06;98417.09;15796034;28;20098;-51
2024/01/17 18:30:16;;;;;;;0.70;0.70;;;;;;;-0.07;76.87;98401.44;15796211;28;20069;-52
2024/01/17 18:37:51;;;;;;;0.80;0.63;;;;;;;-0.01;77.05;98390.09;15789654;28;20047;-51
2024/01/17 18:45:25;;;;;;;0.30;0.30;;;;;;;0.49;74.81;98398.47;15780529;28;20584;-53
2024/01/17 18:53:01;;;;;;;0.00;0.00;;;;;;;0.32;76.52;98391.97;15806091;28;20040;-52
2024/01/17 19:00:34;;;;;;;0.17;0.17;;;;;;;-0.59;79.89;98386.28;15791601;28;20052;-49
2024/01/17 19:08:09;;;;;;;0.77;0.77;;;;;;;-0.56;81.29;98377.97;15793414;28;20051;-48
2024/01/17 19:15:44;;;;;;;0.20;0.20;;;;;;;-0.72;80.24;98381.75;15779180;28;20048;-49
2024/01/17 19:23:19;;;;;;;0.00;0.00;;;;;;;-0.52;78.91;98377.38;15773896;28;20565;-50
2024/01/17 19:30:53;;;;;;;0.00;0.00;;;;;;;-0.34;78.99;98376.00;15776645;28;20044;-50
2024/01/17 19:38:28;;;;;;;0.00;0.00;;;;;;;0.49;75.77;98387.91;15779441;28;20041;-53
2024/01/17 19:46:03;;;;;;;0.03;0.03;;;;;;;0.40;76.05;98377.75;15787009;28;20127;-48
2024/01/17 19:53:38;;;;;;;0.38;0.38;;;;;;;0.64;75.64;98385.06;15802099;28;20090;-48
2024/01/17 20:01:11;;;;;;;0.20;0.20;;;;;;;0.82;74.90;98373.88;15777095;28;20032;-49
2024/01/17 20:08:46;;;;;;;1.35;1.17;;;;;;;0.73;74.28;98368.00;15765444;28;20434;-49
2024/01/17 20:16:19;;;;;;;0.00;0.00;;;;;;;0.29;77.13;98378.38;15787408;28;20144;-51
2024/01/17 20:23:56;;;;;;;1.10;1.05;;;;;;;0.70;76.01;98376.34;15799774;28;20089;-51
2024/01/17 20:31:32;;;;;;;0.10;0.10;;;;;;;0.46;75.51;98388.31;15787775;28;20098;-50
2024/01/17 20:39:08;;;;;;;0.43;0.43;;;;;;;0.55;75.54;98383.63;15785537;28;20485;-48
2024/01/17 20:46:42;;;;;;;0.10;0.10;;;;;;;0.57;75.12;98397.47;15788031;28;20127;-53
2024/01/17 20:54:18;;;;;;;1.38;1.27;;;;;;;0.66;75.22;98388.31;15778013;28;20035;-51
2024/01/17 21:01:54;;;;;;;3.85;3.17;;;;;;;-0.21;76.94;98386.59;15765781;28;20050;-52
2024/01/17 21:09:30;;;;;;;1.27;1.17;;;;;;;0.10;77.56;98386.06;15731384;28;20401;-51
2024/01/17 21:17:05;;;;;;;0.40;0.40;;;;;;;0.37;75.35;98388.72;15742187;28;20449;-51
2024/01/17 21:24:42;;;;;;;0.38;0.38;;;;;;;0.09;77.43;98409.97;15773995;28;20044;-49
2024/01/17 21:32:17;;;;;;;0.00;0.00;;;;;;;0.22;76.66;98378.34;15778473;28;20044;-55
2024/01/17 21:39:52;;;;;;;0.30;0.30;;;;;;;0.43;76.48;98401.13;15787672;28;20123;-48
2024/01/17 21:47:27;;;;;;;0.05;0.05;;;;;;;0.44;75.49;98393.00;15791978;28;20040;-52
2024/01/17 21:55:02;;;;;;;1.13;1.08;;;;;;;0.62;75.31;98381.00;15773153;28;20036;-52
2024/01/17 22:02:36;;;;;;;0.00;0.00;;;;;;;0.64;75.07;98390.34;15737274;28;20098;-51
2024/01/17 22:10:15;;;;;;;0.30;0.30;;;;;;;0.55;75.80;98396.84;15768071;28;20036;-49
2024/01/17 22:17:51;;;;;;;0.20;0.20;;;;;;;-0.03;77.77;98413.22;15775074;28;20052;-50
2024/01/17 22:25:47;;;;;;;0.45;0.45;;;;;;;-0.01;78.52;98411.19;15767935;28;20123;-48
2024/01/17 22:33:21;;;;;;;0.68;0.68;;;;;;;-0.23;79.10;98407.09;15574178;28;20042;-51
2024/01/17 22:40:56;;;;;;;0.20;0.20;;;;;;;0.25;76.43;98420.97;15547040;28;20034;-52
2024/01/17 22:48:31;;;;;;;0.10;0.10;;;;;;;0.41;75.62;98422.41;15533981;28;20049;-51
2024/01/17 22:56:06;;;;;;;0.10;0.10;;;;;;;0.08;76.76;98430.28;15532047;28;20048;-50
2024/01/17 23:03:40;;;;;;;0.65;0.65;;;;;;;-0.37;78.70;98447.59;15549575;28;20050;-50
2024/01/17 23:11:15;;;;;;;1.10;0.65;;;;;;;0.11;76.70;98445.72;15547526;28;20100;-48
2024/01/17 23:18:49;;;;;;;0.00;0.00;;;;;;;-0.15;78.39;98445.63;15563149;28;20066;-52
2024/01/17 23:26:30;;;;;;;0.73;0.73;;;;;;;-0.52;79.52;98455.59;15555277;28;20588;-52
2024/01/17 23:34:03;;;;;;;0.03;0.03;;;;;;;-0.44;79.12;98473.91;15610549;28;20042;-52
2024/01/17 23:41:38;;;;;;;0.10;0.10;;;;;;;-0.23;77.83;98480.91;15613455;28;20038;-49
2024/01/17 23:49:15;;;;;;;0.05;0.05;;;;;;;-0.25;78.15;98480.28;15607655;28;20509;-52
2024/01/17 23:56:54;;;;;;;0.00;0.00;;;;;;;-0.04;77.25;98471.44;15605817;28;20401;-48
